Jette Viking Hv77 — 5QEP — position and weather

sailwx.info

Track history (hours):
 
Tides and Currents Weather Stations Pressure Air Temp Water Temp Dewpoint Dewpoint Depression Visibility Wind Speed Wind Dir Waves Ship Positions

Jette Viking Hv77

Last reported at 2015-Mar-19 15:15 UTC. Time now 2015-Mar-28 12:17 UTC.
Position N 55°07' E 009°54'.
Warning: this ship's position is 8 days out of date.

Length 16 m.

Type: Fishing. MMSI: 220046000.

Date/timePositionNaut miles runAvg speedWind from/ knotsBaromVisibWave heightAir tempDewpointWater temp
2015-Mar-19 15:15N 55°07' E 009°54'3 4.7
2015-Mar-19 14:33N 55°04' E 009°57'8 2.5
2015-Mar-19 11:29N 54°59' E 010°07'3 3.1
2015-Mar-19 10:25N 55°01' E 010°03'1 0.5
2015-Mar-19 09:20N 55°01' E 010°04'3 3.2
2015-Mar-19 08:32N 54°59' E 010°07'1 1.4
2015-Mar-19 07:33N 55°00' E 010°07'3 3.1
2015-Mar-19 06:32N 55°02' E 010°03'8 0.5
2015-Mar-18 15:30N 55°07' E 009°52'5 4.9
2015-Mar-18 14:27N 55°04' E 009°59'6 2.2
2015-Mar-18 11:33N 54°59' E 010°06'3 3.2
2015-Mar-18 10:28N 55°01' E 010°02'4 2.2
2015-Mar-18 08:32N 54°58' E 010°08'3 2.6
2015-Mar-18 07:22N 55°01' E 010°05'3 3.1
2015-Mar-18 06:33N 55°03' E 010°02'14 0.9
2015-Mar-17 14:19N 55°11' E 009°41'5 6.8
2015-Mar-17 13:33N 55°06' E 009°36'2 2.2
2015-Mar-17 12:33N 55°04' E 009°34'1 1.2
2015-Mar-17 11:30N 55°03' E 009°33'2 2.6
2015-Mar-17 10:33N 55°05' E 009°36'2 2.2
2015-Mar-17 09:28N 55°03' E 009°33'1 0.6
2015-Mar-17 08:10N 55°04' E 009°35'2 2.4
2015-Mar-17 07:31N 55°05' E 009°36'3 3.1
2015-Mar-17 06:33N 55°03' E 009°32'  
2015-Mar-12 15:11N 55°08' E 009°52'5 7.5
2015-Mar-12 14:30N 55°04' E 009°58'3 2.5
2015-Mar-12 13:24N 55°02' E 010°02'3 3.1
2015-Mar-12 12:19N 54°60' E 010°05'4 1.0
2015-Mar-12 08:30N 54°57' E 010°10'3 3.1
2015-Mar-12 07:31N 54°60' E 010°07'3 3.1
2015-Mar-12 06:32N 55°02' E 010°04'18 1.8
2015-Mar-11 20:28N 55°16' E 009°44'7 1.0
2015-Mar-11 13:10N 55°08' E 009°43'2 2.0
2015-Mar-11 12:20N 55°08' E 009°46'2 3.0
2015-Mar-11 11:32N 55°07' E 009°42'3 3.0
2015-Mar-11 10:33N 55°06' E 009°37'3 3.1
2015-Mar-11 09:33N 55°04' E 009°33'1 0.6
2015-Mar-11 08:23N 55°03' E 009°34'2 1.8
2015-Mar-11 07:33N 55°05' E 009°36'3 3.1
2015-Mar-11 06:30N 55°02' E 009°32'6 0.4
2015-Mar-10 15:33N 55°07' E 009°38'3 3.1
2015-Mar-10 14:32N 55°04' E 009°35'1 0.6
2015-Mar-10 12:33N 55°05' E 009°37'3 3.0
2015-Mar-10 11:33N 55°03' E 009°33'2 1.6
2015-Mar-10 10:19N 55°04' E 009°35'1 1.1
2015-Mar-10 09:32N 55°04' E 009°33'1 0.9
2015-Mar-10 08:18N 55°04' E 009°35'1 1.0
2015-Mar-10 07:33N 55°04' E 009°35'3 3.1
2015-Mar-10 06:33N 55°03' E 009°31'  
Track history (hours):
 
Tides and Currents Weather Stations Pressure Air Temp Water Temp Dewpoint Dewpoint Depression Visibility Wind Speed Wind Dir Waves Ship Positions

Jette Viking Hv77

Last reported at 2015-Mar-19 15:15 UTC. Time now 2015-Mar-28 12:17 UTC.
Position N 55°07' E 009°54'.
Warning: this ship's position is 8 days out of date.

Length 16 m.

Type: Fishing. MMSI: 220046000.

Date/timePositionNaut miles runAvg speedWind from/ knotsBaromVisibWave heightAir tempDewpointWater temp
2015-Mar-19 15:15N 55°07' E 009°54'3 4.7
2015-Mar-19 14:33N 55°04' E 009°57'8 2.5
2015-Mar-19 11:29N 54°59' E 010°07'3 3.1
2015-Mar-19 10:25N 55°01' E 010°03'1 0.5
2015-Mar-19 09:20N 55°01' E 010°04'3 3.2
2015-Mar-19 08:32N 54°59' E 010°07'1 1.4
2015-Mar-19 07:33N 55°00' E 010°07'3 3.1
2015-Mar-19 06:32N 55°02' E 010°03'8 0.5
2015-Mar-18 15:30N 55°07' E 009°52'5 4.9
2015-Mar-18 14:27N 55°04' E 009°59'6 2.2
2015-Mar-18 11:33N 54°59' E 010°06'3 3.2
2015-Mar-18 10:28N 55°01' E 010°02'4 2.2
2015-Mar-18 08:32N 54°58' E 010°08'3 2.6
2015-Mar-18 07:22N 55°01' E 010°05'3 3.1
2015-Mar-18 06:33N 55°03' E 010°02'14 0.9
2015-Mar-17 14:19N 55°11' E 009°41'5 6.8
2015-Mar-17 13:33N 55°06' E 009°36'2 2.2
2015-Mar-17 12:33N 55°04' E 009°34'1 1.2
2015-Mar-17 11:30N 55°03' E 009°33'2 2.6
2015-Mar-17 10:33N 55°05' E 009°36'2 2.2
2015-Mar-17 09:28N 55°03' E 009°33'1 0.6
2015-Mar-17 08:10N 55°04' E 009°35'2 2.4
2015-Mar-17 07:31N 55°05' E 009°36'3 3.1
2015-Mar-17 06:33N 55°03' E 009°32'  
2015-Mar-12 15:11N 55°08' E 009°52'5 7.5
2015-Mar-12 14:30N 55°04' E 009°58'3 2.5
2015-Mar-12 13:24N 55°02' E 010°02'3 3.1
2015-Mar-12 12:19N 54°60' E 010°05'4 1.0
2015-Mar-12 08:30N 54°57' E 010°10'3 3.1
2015-Mar-12 07:31N 54°60' E 010°07'3 3.1
2015-Mar-12 06:32N 55°02' E 010°04'18 1.8
2015-Mar-11 20:28N 55°16' E 009°44'7 1.0
2015-Mar-11 13:10N 55°08' E 009°43'2 2.0
2015-Mar-11 12:20N 55°08' E 009°46'2 3.0
2015-Mar-11 11:32N 55°07' E 009°42'3 3.0
2015-Mar-11 10:33N 55°06' E 009°37'3 3.1
2015-Mar-11 09:33N 55°04' E 009°33'1 0.6
2015-Mar-11 08:23N 55°03' E 009°34'2 1.8
2015-Mar-11 07:33N 55°05' E 009°36'3 3.1
2015-Mar-11 06:30N 55°02' E 009°32'6 0.4
2015-Mar-10 15:33N 55°07' E 009°38'3 3.1
2015-Mar-10 14:32N 55°04' E 009°35'1 0.6
2015-Mar-10 12:33N 55°05' E 009°37'3 3.0
2015-Mar-10 11:33N 55°03' E 009°33'2 1.6
2015-Mar-10 10:19N 55°04' E 009°35'1 1.1
2015-Mar-10 09:32N 55°04' E 009°33'1 0.9
2015-Mar-10 08:18N 55°04' E 009°35'1 1.0
2015-Mar-10 07:33N 55°04' E 009°35'3 3.1
2015-Mar-10 06:33N 55°03' E 009°31'  

Dump ship's entire track history